createdAt,value
2023-03-26T00:04:06.977Z,6.15
2023-03-26T00:09:13.693Z,6.24
2023-03-26T00:14:17.952Z,6.31
2023-03-26T00:19:21.625Z,6.37
2023-03-26T00:24:29.669Z,6.42
2023-03-26T00:29:33.484Z,6.48
2023-03-26T00:34:36.490Z,6.52
2023-03-26T00:39:39.610Z,6.56
2023-03-26T00:44:42.707Z,6.59
2023-03-26T00:49:46.972Z,6.61
2023-03-26T00:54:52.831Z,6.60
2023-03-26T00:59:56.861Z,6.60
2023-03-26T01:05:04.377Z,6.61
2023-03-26T01:10:07.775Z,6.61
2023-03-26T01:15:11.283Z,6.62
2023-03-26T01:20:26.903Z,6.61
2023-03-26T01:25:38.383Z,6.60
2023-03-26T01:31:01.518Z,6.59
2023-03-26T01:36:19.638Z,6.59
2023-03-26T01:42:00.327Z,6.58
2023-03-26T01:47:04.209Z,6.58
2023-03-26T01:52:15.044Z,6.58
2023-03-26T01:57:34.332Z,6.56
2023-03-26T02:02:44.591Z,6.51
2023-03-26T02:07:58.649Z,6.46
2023-03-26T02:13:02.064Z,6.43
2023-03-26T02:18:05.137Z,6.43
2023-03-26T02:23:09.020Z,6.44
2023-03-26T02:28:12.136Z,6.45
2023-03-26T02:33:15.543Z,6.46
2023-03-26T02:38:19.790Z,6.47
2023-03-26T02:43:22.794Z,6.49
2023-03-26T02:48:26.426Z,6.51
2023-03-26T02:53:32.598Z,6.53
2023-03-26T02:58:35.599Z,6.56
2023-03-26T03:03:38.977Z,6.58
2023-03-26T03:08:41.935Z,6.58
2023-03-26T03:13:46.386Z,6.54
2023-03-26T03:18:54.814Z,6.49
2023-03-26T03:24:00.295Z,6.46
2023-03-26T03:29:04.030Z,6.42
2023-03-26T03:34:07.092Z,6.42
2023-03-26T03:39:10.201Z,6.41
2023-03-26T03:44:13.209Z,6.42
2023-03-26T03:49:16.533Z,6.45
2023-03-26T03:54:19.440Z,6.48
2023-03-26T03:59:22.442Z,6.50
2023-03-26T04:04:25.670Z,6.51
2023-03-26T04:09:28.651Z,6.51
2023-03-26T04:14:31.658Z,6.50
2023-03-26T04:19:34.678Z,6.48
2023-03-26T04:24:42.453Z,6.46
2023-03-26T04:29:49.819Z,6.44
2023-03-26T04:34:53.887Z,6.44
2023-03-26T04:39:56.774Z,6.43
2023-03-26T04:45:00.143Z,6.43
2023-03-26T04:50:08.238Z,6.45
2023-03-26T04:55:24.538Z,6.46
2023-03-26T05:00:27.902Z,6.47
2023-03-26T05:05:31.011Z,6.46
2023-03-26T05:10:34.333Z,6.47
2023-03-26T05:15:37.430Z,6.49
2023-03-26T05:20:41.633Z,6.53
2023-03-26T05:25:44.675Z,6.55
2023-03-26T05:30:47.792Z,6.59
2023-03-26T05:36:09.522Z,6.67
2023-03-26T05:41:12.430Z,6.77
2023-03-26T05:46:16.944Z,6.86
2023-03-26T05:51:20.824Z,6.99
2023-03-26T05:56:23.808Z,7.10
2023-03-26T06:01:26.909Z,7.23
2023-03-26T06:06:32.247Z,7.35
2023-03-26T06:11:36.502Z,7.41
2023-03-26T06:16:39.716Z,7.53
2023-03-26T06:21:42.824Z,7.66
2023-03-26T06:26:47.217Z,7.89
2023-03-26T06:31:50.175Z,8.18
2023-03-26T06:36:53.300Z,8.47
2023-03-26T06:41:56.699Z,8.80
2023-03-26T06:47:00.198Z,9.44
2023-03-26T06:52:03.856Z,9.71
2023-03-26T06:57:06.879Z,9.51
2023-03-26T07:02:11.579Z,9.25
2023-03-26T07:07:14.709Z,9.16
2023-03-26T07:12:18.121Z,9.23
2023-03-26T07:17:21.233Z,9.20
2023-03-26T07:22:25.000Z,9.08
2023-03-26T07:27:46.905Z,8.90
2023-03-26T07:32:59.464Z,8.74
2023-03-26T07:38:33.280Z,8.71
2023-03-26T07:44:04.531Z,8.79
2023-03-26T07:49:12.966Z,8.95
2023-03-26T07:54:16.434Z,9.09
2023-03-26T07:59:28.296Z,9.22
2023-03-26T08:05:10.627Z,9.44
2023-03-26T08:10:22.176Z,9.48
2023-03-26T08:15:25.945Z,9.56
2023-03-26T08:21:06.541Z,9.91
2023-03-26T08:26:15.028Z,10.39
2023-03-26T08:31:21.673Z,10.94
2023-03-26T08:36:24.671Z,12.09
2023-03-26T08:41:46.525Z,11.97
2023-03-26T08:47:27.564Z,11.38
2023-03-26T08:53:08.025Z,10.88
2023-03-26T08:58:23.303Z,10.52
2023-03-26T09:03:58.906Z,10.29
2023-03-26T09:09:33.315Z,10.30
2023-03-26T09:14:51.687Z,10.82
2023-03-26T09:20:33.091Z,11.23
2023-03-26T09:26:01.695Z,11.12
2023-03-26T09:31:29.096Z,10.63
2023-03-26T09:36:50.720Z,10.12
2023-03-26T09:42:28.853Z,9.65
2023-03-26T09:47:47.751Z,9.25
2023-03-26T09:53:24.835Z,9.15
2023-03-26T09:58:37.285Z,9.60
2023-03-26T10:04:12.117Z,10.36
2023-03-26T10:09:46.661Z,11.19
2023-03-26T10:15:18.037Z,11.47
2023-03-26T10:20:54.781Z,11.37
2023-03-26T10:26:24.767Z,11.21
2023-03-26T10:31:42.899Z,11.40
2023-03-26T10:37:09.187Z,11.70
2023-03-26T10:43:07.388Z,11.83
2023-03-26T10:49:01.168Z,11.98
2023-03-26T10:54:11.371Z,11.96
2023-03-26T10:59:16.306Z,11.88
2023-03-26T11:04:32.891Z,12.03
2023-03-26T11:09:48.270Z,11.91
2023-03-26T11:15:13.045Z,11.61
2023-03-26T11:20:27.622Z,11.53
2023-03-26T11:25:59.822Z,11.68
2023-03-26T11:31:12.070Z,11.53
2023-03-26T11:36:24.692Z,11.18
2023-03-26T11:41:32.682Z,10.95
2023-03-26T11:46:42.724Z,10.89
2023-03-26T11:51:48.952Z,10.86
2023-03-26T11:57:07.266Z,11.19
2023-03-26T12:02:13.423Z,11.58
2023-03-26T12:07:23.464Z,11.86
2023-03-26T12:12:31.473Z,11.92
2023-03-26T12:17:39.802Z,11.52
2023-03-26T12:22:44.965Z,10.44
2023-03-26T12:27:52.985Z,9.50
2023-03-26T12:33:03.809Z,8.92
2023-03-26T12:38:22.461Z,8.54
2023-03-26T12:44:53.414Z,8.28
2023-03-26T12:49:12.091Z,8.57
2023-03-26T12:54:28.927Z,9.00
2023-03-26T13:00:11.152Z,9.37
2023-03-26T13:05:36.893Z,9.79
2023-03-26T13:11:01.582Z,10.27
2023-03-26T13:16:15.068Z,10.71
2023-03-26T13:21:24.008Z,10.98
2023-03-26T13:26:50.675Z,11.13
2023-03-26T13:32:18.977Z,10.93
2023-03-26T13:37:40.520Z,10.45
2023-03-26T13:43:05.030Z,10.00
2023-03-26T13:48:16.678Z,9.89
2023-03-26T13:53:25.970Z,10.16
2023-03-26T13:58:44.461Z,10.30
2023-03-26T14:03:56.446Z,10.30
2023-03-26T14:09:07.573Z,10.13
2023-03-26T14:14:17.953Z,9.91
2023-03-26T14:19:26.806Z,9.85
2023-03-26T14:25:01.949Z,10.01
2023-03-26T14:30:56.655Z,10.16
2023-03-26T14:36:15.344Z,10.18
2023-03-26T14:41:59.316Z,10.11
2023-03-26T14:47:17.866Z,10.03
2023-03-26T14:52:30.104Z,9.88
2023-03-26T14:57:52.574Z,9.74
2023-03-26T15:03:11.179Z,9.68
2023-03-26T15:08:34.174Z,9.67
2023-03-26T15:14:18.401Z,9.64
2023-03-26T15:19:33.690Z,9.61
2023-03-26T15:25:17.145Z,9.53
2023-03-26T15:30:39.619Z,9.39
2023-03-26T15:36:26.566Z,9.41
2023-03-26T15:41:58.830Z,9.41
2023-03-26T15:47:23.447Z,9.40
2023-03-26T15:53:10.306Z,9.25
2023-03-26T15:58:30.969Z,9.00
2023-03-26T16:03:50.083Z,8.73
2023-03-26T16:08:56.272Z,8.54
2023-03-26T16:14:23.899Z,8.40
2023-03-26T16:19:36.422Z,8.18
2023-03-26T16:24:47.787Z,7.93
2023-03-26T16:30:00.154Z,7.67
2023-03-26T16:35:16.742Z,7.44
2023-03-26T16:40:20.991Z,7.29
2023-03-26T16:45:50.607Z,7.18
2023-03-26T16:51:05.176Z,7.03
2023-03-26T16:56:22.527Z,6.87
2023-03-26T17:01:52.387Z,6.69
2023-03-26T17:07:17.588Z,6.55
2023-03-26T17:12:48.659Z,6.44
2023-03-26T17:18:03.821Z,6.43
2023-03-26T17:23:25.690Z,6.45
2023-03-26T17:28:45.489Z,6.50
2023-03-26T17:33:48.759Z,6.57
2023-03-26T17:39:00.984Z,6.62
2023-03-26T17:44:47.354Z,6.69
2023-03-26T17:49:58.549Z,6.74
2023-03-26T17:55:03.059Z,6.77
2023-03-26T18:00:11.113Z,6.74
2023-03-26T18:05:16.890Z,6.69
2023-03-26T18:10:41.606Z,6.66
2023-03-26T18:16:00.218Z,6.65
2023-03-26T18:21:07.404Z,6.66
2023-03-26T18:26:21.656Z,6.68
2023-03-26T18:31:27.049Z,6.65
2023-03-26T18:36:31.243Z,6.60
2023-03-26T18:41:42.846Z,6.56
2023-03-26T18:46:46.682Z,6.52
2023-03-26T18:51:56.677Z,6.50
2023-03-26T18:57:15.026Z,6.47
2023-03-26T19:02:21.117Z,6.44
2023-03-26T19:07:26.657Z,6.40
2023-03-26T19:12:36.744Z,6.36
2023-03-26T19:17:44.717Z,6.28
2023-03-26T19:22:48.719Z,6.24
2023-03-26T19:27:52.745Z,6.20
2023-03-26T19:33:11.881Z,6.11
2023-03-26T19:38:19.224Z,5.94
2023-03-26T19:43:24.120Z,5.74
2023-03-26T19:48:45.437Z,5.51
2023-03-26T19:53:58.494Z,5.32
2023-03-26T19:59:02.485Z,5.17
2023-03-26T20:04:07.475Z,5.01
2023-03-26T20:09:11.938Z,4.82
2023-03-26T20:14:17.402Z,4.59
2023-03-26T20:19:20.966Z,4.38
2023-03-26T20:24:26.202Z,4.19
2023-03-26T20:29:29.651Z,3.99
2023-03-26T20:34:32.835Z,3.81
2023-03-26T20:39:36.043Z,3.62
2023-03-26T20:44:39.151Z,3.48
2023-03-26T20:49:43.377Z,3.38
2023-03-26T20:54:46.394Z,3.31
2023-03-26T20:59:49.529Z,3.23
2023-03-26T21:04:54.043Z,3.17
2023-03-26T21:09:58.217Z,3.09
2023-03-26T21:15:07.194Z,2.98
2023-03-26T21:20:15.180Z,2.87
2023-03-26T21:25:32.297Z,2.72
2023-03-26T21:30:36.122Z,2.58
2023-03-26T21:35:40.531Z,2.50
2023-03-26T21:40:52.915Z,2.45
2023-03-26T21:46:01.835Z,2.37
2023-03-26T21:51:05.765Z,2.27
2023-03-26T21:56:41.662Z,2.13
2023-03-26T22:01:58.623Z,1.93
2023-03-26T22:07:10.370Z,1.73
2023-03-26T22:12:13.485Z,1.59
2023-03-26T22:17:16.473Z,1.49
2023-03-26T22:22:19.499Z,1.40
2023-03-26T22:27:22.501Z,1.27
2023-03-26T22:32:25.531Z,1.14
2023-03-26T22:37:37.370Z,1.03
2023-03-26T22:42:41.055Z,0.94
2023-03-26T22:47:45.180Z,0.86
2023-03-26T22:52:48.285Z,0.78
2023-03-26T22:57:52.632Z,0.69
2023-03-26T23:03:00.786Z,0.65
2023-03-26T23:08:04.300Z,0.64
2023-03-26T23:13:07.684Z,0.58
2023-03-26T23:18:12.030Z,0.51
2023-03-26T23:23:15.027Z,0.47
2023-03-26T23:28:18.436Z,0.41
2023-03-26T23:33:23.474Z,0.30
2023-03-26T23:38:44.301Z,0.17
2023-03-26T23:43:55.486Z,0.07
2023-03-26T23:49:02.431Z,0.04
2023-03-26T23:54:05.632Z,0.07
2023-03-26T23:59:08.564Z,0.08
